Time;durP1;ratioP1;P1;durP2;ratioP2;P2;SDS_P1;SDS_P2;PMS_P1;PMS_P2;Temp;Humidity;BMP_temperature;BMP_pressure;BME280_temperature;BME280_humidity;BME280_pressure;Samples;Min_cycle;Max_cycle;Signal;HPM_P1;HPM_P2
2020/12/10 00:00:37;;;;;;;;;;;22.20;41.90;;;;;;1548238;75;1145;-56
2020/12/10 00:02:39;;;;;;;;;;;22.20;41.90;;;;;;1544905;75;703;-55
2020/12/10 00:04:41;;;;;;;;;;;22.30;42.10;;;;;;1544685;75;799;-58
2020/12/10 00:06:43;;;;;;;;;;;22.30;42.10;;;;;;1540636;75;715;-58
2020/12/10 00:08:45;;;;;;;;;;;22.30;42.10;;;;;;1548723;75;707;-57
2020/12/10 00:10:47;;;;;;;;;;;22.20;42.00;;;;;;1550429;75;1148;-57
2020/12/10 00:12:48;;;;;;;;;;;22.20;42.00;;;;;;1549450;75;2092;-57
2020/12/10 00:14:53;;;;;;;;;;;22.20;42.10;;;;;;1547561;75;781;-57
2020/12/10 00:16:54;;;;;;;;;;;22.30;42.20;;;;;;1545573;75;1294;-57
2020/12/10 00:18:56;;;;;;;;;;;22.20;42.10;;;;;;1542237;75;699;-56
2020/12/10 00:20:58;;;;;;;;;;;22.20;42.10;;;;;;1546807;75;1144;-55
2020/12/10 00:22:59;;;;;;;;;;;22.30;42.20;;;;;;1545763;75;746;-54
2020/12/10 00:25:02;;;;;;;;;;;22.30;42.20;;;;;;1545476;75;705;-57
2020/12/10 00:27:04;;;;;;;;;;;22.30;42.10;;;;;;1543300;75;776;-53
2020/12/10 00:29:05;;;;;;;;;;;22.30;42.10;;;;;;1533903;75;762;-57
2020/12/10 00:31:07;;;;;;;;;;;22.30;42.10;;;;;;1551310;75;1115;-57
2020/12/10 00:33:09;;;;;;;;;;;22.30;42.10;;;;;;1550117;75;1943;-54
2020/12/10 00:35:11;;;;;;;;;;;22.30;42.20;;;;;;1548377;75;759;-57
2020/12/10 00:37:13;;;;;;;;;;;22.20;42.10;;;;;;1544869;75;703;-54
2020/12/10 00:39:15;;;;;;;;;;;22.20;42.10;;;;;;1548145;75;759;-55
2020/12/10 00:41:17;;;;;;;;;;;22.30;42.20;;;;;;1551656;75;1133;-55
2020/12/10 00:43:19;;;;;;;;;;;22.30;42.10;;;;;;1529363;77;706;-53
2020/12/10 00:45:21;;;;;;;;;;;22.20;42.10;;;;;;1542889;75;715;-56
2020/12/10 00:47:23;;;;;;;;;;;22.30;42.20;;;;;;1528303;77;682;-56
2020/12/10 00:49:24;;;;;;;;;;;22.20;42.00;;;;;;1528987;76;721;-55
2020/12/10 00:51:26;;;;;;;;;;;22.30;42.10;;;;;;1544914;75;1154;-55
2020/12/10 00:53:29;;;;;;;;;;;22.30;42.10;;;;;;1544472;75;1959;-54
2020/12/10 00:55:30;;;;;;;;;;;22.30;42.00;;;;;;1548948;75;791;-54
2020/12/10 00:57:32;;;;;;;;;;;22.30;42.00;;;;;;1542304;75;734;-54
2020/12/10 00:59:34;;;;;;;;;;;22.30;41.90;;;;;;1532904;75;1317;-53
2020/12/10 01:01:36;;;;;;;;;;;22.30;41.90;;;;;;1540512;75;663;-55
2020/12/10 01:03:38;;;;;;;;;;;22.20;41.80;;;;;;1545994;75;732;-57
2020/12/10 01:05:40;;;;;;;;;;;22.30;42.00;;;;;;1545295;75;766;-56
2020/12/10 01:07:42;;;;;;;;;;;22.20;41.80;;;;;;1535365;75;654;-57
2020/12/10 01:09:47;;;;;;;;;;;22.20;42.00;;;;;;1548503;75;1163;-58
2020/12/10 01:11:48;;;;;;;;;;;22.30;42.20;;;;;;1551120;75;1928;-54
2020/12/10 01:13:50;;;;;;;;;;;22.20;42.10;;;;;;1545866;75;770;-56
2020/12/10 01:15:55;;;;;;;;;;;22.20;42.20;;;;;;1548187;75;770;-55
2020/12/10 01:17:57;;;;;;;;;;;22.30;42.40;;;;;;1546559;75;726;-53
2020/12/10 01:19:59;;;;;;;;;;;22.20;42.30;;;;;;1546221;75;1181;-55
2020/12/10 01:22:01;;;;;;;;;;;22.20;42.20;;;;;;1545830;75;778;-54
2020/12/10 01:24:03;;;;;;;;;;;22.20;42.20;;;;;;1538308;75;703;-56
2020/12/10 01:26:07;;;;;;;;;;;22.20;42.20;;;;;;1544855;75;672;-54
2020/12/10 01:28:08;;;;;;;;;;;22.30;42.40;;;;;;1544179;75;1571;-54
2020/12/10 01:30:10;;;;;;;;;;;22.20;42.20;;;;;;1549218;75;1149;-57
2020/12/10 01:32:12;;;;;;;;;;;22.30;42.30;;;;;;1548756;75;1939;-57
2020/12/10 01:34:14;;;;;;;;;;;22.30;42.30;;;;;;1548001;75;721;-57
2020/12/10 01:36:21;;;;;;;;;;;22.30;42.30;;;;;;1549985;75;711;-58
2020/12/10 01:38:22;;;;;;;;;;;22.30;42.40;;;;;;1546993;75;1654;-59
2020/12/10 01:40:24;;;;;;;;;;;22.20;42.30;;;;;;1547128;75;1103;-58
2020/12/10 01:42:26;;;;;;;;;;;22.20;42.40;;;;;;1528430;75;1100;-57
2020/12/10 01:44:28;;;;;;;;;;;22.20;42.40;;;;;;1539917;75;709;-58
2020/12/10 01:46:30;;;;;;;;;;;22.30;42.40;;;;;;1545834;75;668;-58
2020/12/10 01:48:32;;;;;;;;;;;22.20;42.30;;;;;;1542651;75;658;-56
2020/12/10 01:50:34;;;;;;;;;;;22.20;42.30;;;;;;1544976;75;1210;-58
2020/12/10 01:52:36;;;;;;;;;;;22.30;42.40;;;;;;1538858;75;1937;-57
2020/12/10 01:54:38;;;;;;;;;;;22.20;42.30;;;;;;1550102;75;692;-56
2020/12/10 01:56:40;;;;;;;;;;;22.30;42.40;;;;;;1550838;75;695;-56
2020/12/10 01:58:42;;;;;;;;;;;22.20;42.30;;;;;;1548880;75;776;-55
2020/12/10 02:00:44;;;;;;;;;;;22.30;42.40;;;;;;1545380;75;1146;-54
2020/12/10 02:02:46;;;;;;;;;;;22.20;42.20;;;;;;1534937;75;722;-53
2020/12/10 02:04:47;;;;;;;;;;;22.30;42.40;;;;;;1538763;75;778;-56
2020/12/10 02:06:49;;;;;;;;;;;22.30;42.40;;;;;;1548453;75;780;-57
2020/12/10 02:08:51;;;;;;;;;;;22.20;42.30;;;;;;1547459;75;932;-57
2020/12/10 02:10:53;;;;;;;;;;;22.20;42.30;;;;;;1552340;75;1146;-57
2020/12/10 02:12:56;;;;;;;;;;;22.20;42.30;;;;;;1525799;77;1928;-57
2020/12/10 02:14:57;;;;;;;;;;;22.30;42.40;;;;;;1546488;75;706;-58
2020/12/10 02:17:00;;;;;;;;;;;22.30;42.40;;;;;;1546320;75;715;-56
2020/12/10 02:19:01;;;;;;;;;;;22.20;42.30;;;;;;1549213;75;792;-56
2020/12/10 02:21:04;;;;;;;;;;;22.20;42.20;;;;;;1534894;75;1138;-59
2020/12/10 02:23:06;;;;;;;;;;;22.20;42.30;;;;;;1545327;75;708;-58
2020/12/10 02:25:08;;;;;;;;;;;22.20;42.40;;;;;;1544852;75;910;-57
2020/12/10 02:27:10;;;;;;;;;;;22.20;42.40;;;;;;1544139;75;779;-54
2020/12/10 02:29:11;;;;;;;;;;;22.20;42.50;;;;;;1535574;75;596;-58
2020/12/10 02:31:13;;;;;;;;;;;22.20;42.40;;;;;;1550768;75;1117;-57
2020/12/10 02:33:15;;;;;;;;;;;22.20;42.40;;;;;;1527573;76;1960;-57
2020/12/10 02:35:17;;;;;;;;;;;22.20;42.40;;;;;;1540175;75;718;-58
2020/12/10 02:37:19;;;;;;;;;;;22.20;42.50;;;;;;1539505;75;694;-53
2020/12/10 02:39:21;;;;;;;;;;;22.20;42.50;;;;;;1546871;75;748;-56
2020/12/10 02:41:23;;;;;;;;;;;22.20;42.40;;;;;;1549747;75;1035;-56
2020/12/10 02:43:24;;;;;;;;;;;22.30;42.40;;;;;;1549652;75;726;-53
2020/12/10 02:45:26;;;;;;;;;;;22.20;42.30;;;;;;1546053;75;716;-57
2020/12/10 02:47:28;;;;;;;;;;;22.20;42.30;;;;;;1545411;75;755;-57
2020/12/10 02:49:30;;;;;;;;;;;22.20;42.30;;;;;;1538095;75;1155;-56
2020/12/10 02:51:32;;;;;;;;;;;22.20;42.30;;;;;;1544727;75;719;-56
2020/12/10 02:53:34;;;;;;;;;;;22.20;42.30;;;;;;1549310;75;1939;-56
2020/12/10 02:55:36;;;;;;;;;;;22.20;42.30;;;;;;1548947;75;760;-56
2020/12/10 02:57:38;;;;;;;;;;;22.20;42.30;;;;;;1541577;75;704;-56
2020/12/10 02:59:40;;;;;;;;;;;22.30;42.50;;;;;;1548798;75;1197;-57
2020/12/10 03:01:42;;;;;;;;;;;22.20;42.30;;;;;;1547028;75;788;-53
2020/12/10 03:03:45;;;;;;;;;;;22.30;42.50;;;;;;1551037;75;709;-56
2020/12/10 03:05:47;;;;;;;;;;;22.20;42.30;;;;;;1550950;75;585;-54
2020/12/10 03:07:49;;;;;;;;;;;22.30;42.40;;;;;;1547091;75;722;-58
2020/12/10 03:09:51;;;;;;;;;;;22.20;42.30;;;;;;1548148;75;1142;-56
2020/12/10 03:11:52;;;;;;;;;;;22.20;42.30;;;;;;1547783;75;719;-55
2020/12/10 03:13:54;;;;;;;;;;;22.20;42.30;;;;;;1548854;75;1940;-58
2020/12/10 03:15:56;;;;;;;;;;;22.20;42.30;;;;;;1547326;75;722;-56
2020/12/10 03:17:58;;;;;;;;;;;22.30;42.40;;;;;;1514166;76;790;-58
2020/12/10 03:20:00;;;;;;;;;;;22.20;42.30;;;;;;1524370;77;1143;-57
2020/12/10 03:22:02;;;;;;;;;;;22.20;42.30;;;;;;1523575;76;800;-55
2020/12/10 03:24:04;;;;;;;;;;;22.20;42.30;;;;;;1545254;75;711;-54
2020/12/10 03:26:05;;;;;;;;;;;22.20;42.30;;;;;;1538928;75;726;-53
2020/12/10 03:28:08;;;;;;;;;;;22.30;42.50;;;;;;1545856;75;758;-53
2020/12/10 03:30:10;;;;;;;;;;;22.30;42.60;;;;;;1548983;75;1158;-53
2020/12/10 03:32:11;;;;;;;;;;;22.20;42.50;;;;;;1546702;75;786;-54
2020/12/10 03:34:15;;;;;;;;;;;22.30;42.60;;;;;;1549157;75;1938;-58
2020/12/10 03:36:16;;;;;;;;;;;22.20;42.50;;;;;;1537314;75;750;-56
2020/12/10 03:38:18;;;;;;;;;;;22.20;42.60;;;;;;1547082;75;711;-57
2020/12/10 03:40:20;;;;;;;;;;;22.20;42.60;;;;;;1546841;75;1130;-54
2020/12/10 03:42:22;;;;;;;;;;;22.20;42.70;;;;;;1546526;75;742;-55
2020/12/10 03:44:24;;;;;;;;;;;22.20;42.60;;;;;;1545280;75;710;-54
2020/12/10 03:46:26;;;;;;;;;;;22.30;42.90;;;;;;1545630;75;805;-57
2020/12/10 03:48:28;;;;;;;;;;;22.20;42.80;;;;;;1538484;75;790;-56
2020/12/10 03:50:29;;;;;;;;;;;22.20;42.80;;;;;;1543636;75;1174;-55
2020/12/10 03:52:31;;;;;;;;;;;22.20;42.90;;;;;;1549416;75;682;-56
2020/12/10 03:54:33;;;;;;;;;;;22.20;43.00;;;;;;1534666;75;1921;-54
2020/12/10 03:56:35;;;;;;;;;;;22.20;42.90;;;;;;1547933;76;729;-57
2020/12/10 03:58:37;;;;;;;;;;;22.20;42.90;;;;;;1528600;77;674;-56
2020/12/10 04:00:39;;;;;;;;;;;22.30;42.90;;;;;;1542372;75;1135;-56
2020/12/10 04:02:41;;;;;;;;;;;22.30;42.90;;;;;;1523671;77;719;-56
2020/12/10 04:04:43;;;;;;;;;;;22.30;42.90;;;;;;1523059;77;622;-55
2020/12/10 04:06:44;;;;;;;;;;;22.20;42.90;;;;;;1529218;77;712;-55
2020/12/10 04:41:02;;;;;;;;;;;22.20;43.60;;;;;;1530480;76;1687;-58
2020/12/10 04:43:04;;;;;;;;;;;22.20;43.60;;;;;;1534943;76;942;-57
2020/12/10 04:45:06;;;;;;;;;;;22.20;43.60;;;;;;1528248;76;676;-57
2020/12/10 04:47:08;;;;;;;;;;;22.20;43.60;;;;;;1531149;76;706;-56
2020/12/10 04:49:10;;;;;;;;;;;22.20;43.50;;;;;;1534916;76;758;-58
2020/12/10 04:51:12;;;;;;;;;;;22.30;43.60;;;;;;1534915;76;1139;-56
2020/12/10 04:53:14;;;;;;;;;;;22.30;43.60;;;;;;1534943;76;1959;-56
2020/12/10 04:55:15;;;;;;;;;;;22.30;43.50;;;;;;1528915;76;727;-57
2020/12/10 04:57:17;;;;;;;;;;;22.30;43.40;;;;;;1534885;76;786;-57
2020/12/10 04:59:19;;;;;;;;;;;22.40;43.40;;;;;;1535055;76;723;-57
2020/12/10 05:01:22;;;;;;;;;;;22.30;43.30;;;;;;1534899;76;1132;-57
2020/12/10 05:03:24;;;;;;;;;;;22.40;43.30;;;;;;1532447;76;710;-56
2020/12/10 05:05:27;;;;;;;;;;;22.40;43.30;;;;;;1533879;76;655;-57
2020/12/10 05:07:38;;;;;;;;;;;22.40;43.30;;;;;;1534108;76;1679;-57
2020/12/10 05:09:42;;;;;;;;;;;22.40;43.30;;;;;;1534957;76;1131;-58
2020/12/10 05:11:44;;;;;;;;;;;22.40;43.30;;;;;;1520305;77;961;-57
2020/12/10 05:13:48;;;;;;;;;;;22.40;43.30;;;;;;1526817;76;1929;-57
2020/12/10 05:15:50;;;;;;;;;;;22.40;43.20;;;;;;1534298;76;1847;-57
2020/12/10 05:17:51;;;;;;;;;;;22.50;43.30;;;;;;1524585;76;750;-58
2020/12/10 05:19:56;;;;;;;;;;;22.40;43.10;;;;;;1534933;76;1265;-59
2020/12/10 05:22:02;;;;;;;;;;;22.50;43.30;;;;;;1531118;76;719;-56
2020/12/10 05:24:05;;;;;;;;;;;22.40;43.10;;;;;;1531064;76;718;-58
2020/12/10 05:26:08;;;;;;;;;;;22.40;43.10;;;;;;1533222;76;1586;-57
2020/12/10 05:28:09;;;;;;;;;;;22.40;43.10;;;;;;1536421;76;709;-56
2020/12/10 05:30:13;;;;;;;;;;;22.40;43.10;;;;;;1534327;76;1146;-57
2020/12/10 05:32:33;;;;;;;;;;;22.40;43.20;;;;;;1525848;76;934;-56
2020/12/10 05:34:35;;;;;;;;;;;22.50;43.30;;;;;;1528017;76;1935;-57
2020/12/10 05:36:37;;;;;;;;;;;22.50;43.20;;;;;;1534535;76;771;-57
2020/12/10 05:38:58;;;;;;;;;;;22.50;43.40;;;;;;1534208;76;737;-58
2020/12/10 05:41:18;;;;;;;;;;;22.50;43.30;;;;;;1530050;76;1159;-59
2020/12/10 05:43:21;;;;;;;;;;;22.50;43.20;;;;;;1521035;76;831;-55
2020/12/10 05:45:23;;;;;;;;;;;22.50;43.20;;;;;;1522974;76;980;-57
2020/12/10 05:47:27;;;;;;;;;;;22.40;43.10;;;;;;1517843;76;668;-58
2020/12/10 05:49:29;;;;;;;;;;;22.50;43.30;;;;;;1519021;76;1100;-58
2020/12/10 05:51:31;;;;;;;;;;;22.50;43.20;;;;;;1515639;76;744;-57
2020/12/10 05:53:32;;;;;;;;;;;22.40;43.20;;;;;;1516829;76;1929;-58
2020/12/10 05:55:35;;;;;;;;;;;22.40;43.10;;;;;;1520430;76;732;-58
2020/12/10 05:57:38;;;;;;;;;;;22.40;43.10;;;;;;1512329;76;706;-57
2020/12/10 05:59:40;;;;;;;;;;;22.40;43.20;;;;;;1519782;76;1902;-56
2020/12/10 06:01:42;;;;;;;;;;;22.50;43.20;;;;;;1513048;76;772;-59
2020/12/10 06:03:46;;;;;;;;;;;22.50;43.20;;;;;;1515195;76;725;-58
2020/12/10 06:05:47;;;;;;;;;;;22.40;43.20;;;;;;1527801;76;1866;-56
2020/12/10 06:08:03;;;;;;;;;;;22.50;43.30;;;;;;1532931;76;619;-55
2020/12/10 06:10:05;;;;;;;;;;;22.50;43.20;;;;;;1516357;76;1169;-58
2020/12/10 06:12:07;;;;;;;;;;;22.50;43.30;;;;;;1520432;76;805;-56
2020/12/10 06:14:09;;;;;;;;;;;22.50;43.20;;;;;;1517963;76;1936;-57
2020/12/10 06:16:14;;;;;;;;;;;22.50;43.40;;;;;;1518476;76;739;-57
2020/12/10 06:18:16;;;;;;;;;;;22.50;43.30;;;;;;1516939;76;633;-57
2020/12/10 06:20:38;;;;;;;;;;;22.50;43.30;;;;;;1517885;76;1153;-57
2020/12/10 06:22:40;;;;;;;;;;;22.60;43.20;;;;;;1521471;76;757;-58
2020/12/10 06:24:42;;;;;;;;;;;22.50;43.10;;;;;;1520518;76;705;-58
2020/12/10 06:26:44;;;;;;;;;;;22.50;43.20;;;;;;1521171;76;688;-56
2020/12/10 06:28:46;;;;;;;;;;;22.50;43.30;;;;;;1513035;76;737;-56
2020/12/10 06:31:04;;;;;;;;;;;22.60;43.30;;;;;;1522577;76;1131;-58
2020/12/10 06:33:05;;;;;;;;;;;22.60;43.20;;;;;;1526222;76;712;-56
2020/12/10 06:35:07;;;;;;;;;;;22.60;43.40;;;;;;1534725;76;1940;-56
2020/12/10 06:37:19;;;;;;;;;;;22.60;43.10;;;;;;1513088;77;1142;-56
2020/12/10 06:39:22;;;;;;;;;;;22.60;42.80;;;;;;1525031;76;699;-56
2020/12/10 06:41:24;;;;;;;;;;;22.60;42.50;;;;;;1532694;76;1670;-56
2020/12/10 06:43:28;;;;;;;;;;;22.60;42.30;;;;;;1527701;76;659;-56
2020/12/10 06:45:34;;;;;;;;;;;22.60;41.90;;;;;;1533514;76;1890;-56
2020/12/10 06:47:42;;;;;;;;;;;22.60;41.60;;;;;;1534490;76;718;-56
2020/12/10 06:49:44;;;;;;;;;;;22.60;41.70;;;;;;1533416;76;1190;-57
2020/12/10 06:51:47;;;;;;;;;;;22.60;41.60;;;;;;1534559;76;687;-59
2020/12/10 06:54:06;;;;;;;;;;;22.70;41.50;;;;;;1541728;76;1929;-56
2020/12/10 06:56:16;;;;;;;;;;;22.60;41.30;;;;;;1531929;76;1655;-57
2020/12/10 06:58:15;;;;;;;;;;;22.60;41.30;;;;;;1532995;76;1508;-59
2020/12/10 07:00:36;;;;;;;;;;;22.70;41.40;;;;;;1534625;76;1147;-59
2020/12/10 07:02:38;;;;;;;;;;;22.60;41.30;;;;;;1534670;76;700;-57
2020/12/10 07:04:50;;;;;;;;;;;22.60;41.10;;;;;;1533793;76;703;-57
2020/12/10 07:07:10;;;;;;;;;;;22.70;41.10;;;;;;1529337;76;688;-57
2020/12/10 07:09:14;;;;;;;;;;;22.60;40.90;;;;;;1511779;76;706;-59
2020/12/10 07:11:17;;;;;;;;;;;22.60;40.90;;;;;;1511957;76;1140;-59
2020/12/10 07:13:21;;;;;;;;;;;22.60;40.20;;;;;;1530683;76;1425;-58
2020/12/10 07:15:25;;;;;;;;;;;22.60;39.40;;;;;;1531925;76;2056;-59
2020/12/10 07:17:26;;;;;;;;;;;22.60;38.50;;;;;;1533960;76;1710;-59
2020/12/10 07:19:28;;;;;;;;;;;22.70;37.90;;;;;;1545952;76;922;-59
2020/12/10 07:21:30;;;;;;;;;;;22.60;37.30;;;;;;1538331;76;754;-59
2020/12/10 07:23:32;;;;;;;;;;;22.50;36.70;;;;;;1526845;76;764;-59
2020/12/10 07:25:33;;;;;;;;;;;22.40;35.90;;;;;;1534604;76;958;-59
2020/12/10 07:27:35;;;;;;;;;;;22.40;35.60;;;;;;1534527;76;756;-60
2020/12/10 07:29:37;;;;;;;;;;;22.40;35.20;;;;;;1534587;76;1100;-58
2020/12/10 07:31:39;;;;;;;;;;;22.30;35.00;;;;;;1534566;76;743;-59
2020/12/10 07:33:41;;;;;;;;;;;22.30;34.70;;;;;;1513592;77;1191;-59
2020/12/10 07:35:43;;;;;;;;;;;22.30;34.40;;;;;;1533794;76;1945;-59
2020/12/10 07:37:45;;;;;;;;;;;22.20;34.00;;;;;;1549917;76;736;-58
2020/12/10 07:39:46;;;;;;;;;;;22.10;33.80;;;;;;1534772;76;1124;-59
2020/12/10 07:41:48;;;;;;;;;;;22.10;33.50;;;;;;1534694;76;852;-59
2020/12/10 07:43:51;;;;;;;;;;;22.00;33.40;;;;;;1521693;76;792;-58
2020/12/10 07:45:53;;;;;;;;;;;22.00;33.10;;;;;;1534483;75;1136;-59
2020/12/10 07:47:58;;;;;;;;;;;22.00;32.90;;;;;;1534460;76;740;-58
2020/12/10 07:50:02;;;;;;;;;;;22.00;32.60;;;;;;1546615;76;1117;-59
2020/12/10 07:52:07;;;;;;;;;;;21.90;32.70;;;;;;1533138;76;1806;-58
2020/12/10 07:54:09;;;;;;;;;;;21.80;32.40;;;;;;1546680;76;1928;-58
2020/12/10 07:56:11;;;;;;;;;;;21.80;32.30;;;;;;1534805;76;690;-58
2020/12/10 07:58:15;;;;;;;;;;;21.80;32.10;;;;;;1534551;76;669;-57
2020/12/10 08:00:17;;;;;;;;;;;21.70;32.00;;;;;;1547482;76;1153;-58
2020/12/10 08:02:19;;;;;;;;;;;21.80;32.00;;;;;;1533534;76;667;-60
2020/12/10 08:04:21;;;;;;;;;;;21.70;31.90;;;;;;1534643;76;668;-58
2020/12/10 08:06:22;;;;;;;;;;;21.60;31.80;;;;;;1538832;75;1143;-60
2020/12/10 08:08:34;;;;;;;;;;;21.60;31.70;;;;;;1514884;77;733;-57
2020/12/10 08:10:38;;;;;;;;;;;21.50;31.60;;;;;;1557913;75;1141;-59
2020/12/10 08:12:40;;;;;;;;;;;21.50;31.50;;;;;;1544807;75;1598;-58
2020/12/10 08:14:42;;;;;;;;;;;21.50;31.50;;;;;;1563436;75;1929;-58
2020/12/10 08:16:44;;;;;;;;;;;21.40;31.30;;;;;;1549678;75;797;-59
2020/12/10 08:18:46;;;;;;;;;;;21.40;31.10;;;;;;1521952;75;690;-58
2020/12/10 08:20:49;;;;;;;;;;;21.40;31.10;;;;;;1541958;75;1139;-59
2020/12/10 08:22:52;;;;;;;;;;;21.30;31.20;;;;;;1538139;75;791;-58
2020/12/10 08:24:54;;;;;;;;;;;21.30;31.10;;;;;;1554411;75;1602;-59
2020/12/10 08:26:59;;;;;;;;;;;21.30;31.10;;;;;;1542688;75;737;-59
2020/12/10 08:29:01;;;;;;;;;;;21.30;31.10;;;;;;1539898;75;724;-58
2020/12/10 08:31:03;;;;;;;;;;;21.30;30.90;;;;;;1541509;75;1118;-59
2020/12/10 08:33:04;;;;;;;;;;;21.20;30.80;;;;;;1555490;75;750;-59
2020/12/10 08:35:07;;;;;;;;;;;21.20;30.90;;;;;;1532457;75;1925;-58
2020/12/10 08:37:09;;;;;;;;;;;21.20;30.80;;;;;;1554162;75;746;-59
2020/12/10 08:39:11;;;;;;;;;;;21.10;30.70;;;;;;1537279;75;741;-58
2020/12/10 08:41:13;;;;;;;;;;;21.10;30.70;;;;;;1542349;75;1111;-59
2020/12/10 08:43:16;;;;;;;;;;;21.00;30.60;;;;;;1542698;75;759;-58
2020/12/10 08:45:32;;;;;;;;;;;21.10;30.60;;;;;;1542517;75;1097;-59
2020/12/10 08:47:33;;;;;;;;;;;21.10;30.70;;;;;;1526198;75;733;-58
2020/12/10 08:49:35;;;;;;;;;;;21.00;30.60;;;;;;1540561;75;1170;-58
2020/12/10 08:51:37;;;;;;;;;;;21.00;30.60;;;;;;1567453;75;775;-58
2020/12/10 08:53:50;;;;;;;;;;;20.90;30.70;;;;;;1551925;75;761;-58
2020/12/10 08:55:56;;;;;;;;;;;20.90;30.70;;;;;;1518887;75;2094;-60
2020/12/10 08:57:58;;;;;;;;;;;20.90;30.70;;;;;;1518867;75;719;-60
2020/12/10 09:00:00;;;;;;;;;;;20.90;30.60;;;;;;1518658;75;1128;-58
2020/12/10 09:02:02;;;;;;;;;;;20.90;30.60;;;;;;1517491;75;679;-58
2020/12/10 09:04:04;;;;;;;;;;;20.90;30.60;;;;;;1520803;75;678;-59
2020/12/10 09:06:06;;;;;;;;;;;20.90;30.70;;;;;;1522805;75;1044;-58
2020/12/10 09:08:08;;;;;;;;;;;20.90;30.70;;;;;;1518428;75;899;-60
2020/12/10 09:10:10;;;;;;;;;;;20.80;30.50;;;;;;1518044;75;1149;-59
2020/12/10 09:12:12;;;;;;;;;;;20.80;30.50;;;;;;1521350;75;652;-58
2020/12/10 09:14:13;;;;;;;;;;;20.80;30.50;;;;;;1521000;75;730;-59
2020/12/10 09:16:17;;;;;;;;;;;20.80;30.50;;;;;;1530495;75;1937;-61
2020/12/10 09:18:18;;;;;;;;;;;20.70;30.50;;;;;;1529765;75;797;-60
2020/12/10 09:20:20;;;;;;;;;;;20.70;30.50;;;;;;1528798;75;1222;-58
2020/12/10 09:22:22;;;;;;;;;;;20.70;30.50;;;;;;1524943;75;712;-59
2020/12/10 09:24:24;;;;;;;;;;;20.70;30.50;;;;;;1518767;75;776;-58
2020/12/10 09:26:26;;;;;;;;;;;20.70;30.50;;;;;;1521879;75;1146;-59
2020/12/10 09:28:28;;;;;;;;;;;20.70;30.50;;;;;;1522047;75;739;-60
2020/12/10 09:30:30;;;;;;;;;;;20.60;30.40;;;;;;1517606;75;1145;-59
2020/12/10 09:32:36;;;;;;;;;;;20.60;30.50;;;;;;1529620;75;791;-58
2020/12/10 09:34:37;;;;;;;;;;;20.60;30.50;;;;;;1524655;75;1925;-59
2020/12/10 09:36:39;;;;;;;;;;;20.60;30.50;;;;;;1520240;75;719;-59
2020/12/10 09:38:41;;;;;;;;;;;20.60;30.40;;;;;;1521641;75;647;-59
2020/12/10 09:40:43;;;;;;;;;;;20.60;30.50;;;;;;1522635;75;1143;-59
2020/12/10 09:42:46;;;;;;;;;;;20.50;30.50;;;;;;1531780;75;661;-59
2020/12/10 09:44:47;;;;;;;;;;;20.60;30.50;;;;;;1530612;75;688;-59
2020/12/10 09:46:49;;;;;;;;;;;20.50;30.50;;;;;;1533016;75;1102;-60
2020/12/10 09:48:51;;;;;;;;;;;20.50;30.50;;;;;;1540868;75;726;-58
2020/12/10 09:50:53;;;;;;;;;;;20.40;30.40;;;;;;1540420;75;1153;-59
2020/12/10 09:53:06;;;;;;;;;;;20.40;30.40;;;;;;1539470;75;694;-59
2020/12/10 09:55:26;;;;;;;;;;;20.50;30.50;;;;;;1541430;75;1898;-59
2020/12/10 09:57:20;;;;;;;;;;;20.40;30.50;;;;;;1539102;75;1439;-59
2020/12/10 09:59:08;;;;;;;;;;;20.40;30.50;;;;;;1538916;75;1618;-60
2020/12/10 10:01:11;;;;;;;;;;;20.40;30.50;;;;;;1542205;75;1149;-59
2020/12/10 10:03:12;;;;;;;;;;;20.40;30.50;;;;;;1536409;75;671;-58
2020/12/10 10:05:14;;;;;;;;;;;20.40;30.50;;;;;;1531219;75;1236;-59
2020/12/10 10:07:16;;;;;;;;;;;20.30;30.50;;;;;;1551022;75;595;-59
2020/12/10 10:09:18;;;;;;;;;;;20.30;30.50;;;;;;1545676;75;719;-59
2020/12/10 10:11:21;;;;;;;;;;;20.30;30.50;;;;;;1542618;75;1072;-59
2020/12/10 10:13:23;;;;;;;;;;;20.30;30.50;;;;;;1533968;75;779;-58
2020/12/10 10:15:25;;;;;;;;;;;20.30;30.50;;;;;;1542676;75;1927;-58
2020/12/10 10:17:27;;;;;;;;;;;20.30;30.60;;;;;;1537002;75;769;-59
2020/12/10 10:19:29;;;;;;;;;;;20.30;30.50;;;;;;1542813;75;734;-59
2020/12/10 10:21:31;;;;;;;;;;;20.20;30.40;;;;;;1541620;75;750;-58
2020/12/10 10:23:33;;;;;;;;;;;20.20;30.50;;;;;;1534192;75;755;-59
2020/12/10 10:25:34;;;;;;;;;;;20.20;30.40;;;;;;1542835;75;1110;-58
2020/12/10 10:27:37;;;;;;;;;;;20.20;30.50;;;;;;1542488;75;731;-58
2020/12/10 10:29:38;;;;;;;;;;;20.10;30.50;;;;;;1542463;75;1139;-60
2020/12/10 10:31:42;;;;;;;;;;;20.20;30.50;;;;;;1539685;75;829;-60
2020/12/10 10:33:43;;;;;;;;;;;20.10;30.60;;;;;;1542405;75;852;-58
2020/12/10 10:35:47;;;;;;;;;;;20.20;30.60;;;;;;1542685;75;1925;-59
2020/12/10 10:37:49;;;;;;;;;;;20.10;30.50;;;;;;1538452;75;718;-59
2020/12/10 10:39:51;;;;;;;;;;;20.10;30.60;;;;;;1532114;75;1139;-59
2020/12/10 10:41:53;;;;;;;;;;;20.10;30.60;;;;;;1545590;75;711;-58
2020/12/10 10:43:55;;;;;;;;;;;20.20;30.60;;;;;;1542791;75;704;-58
2020/12/10 10:45:56;;;;;;;;;;;20.10;30.60;;;;;;1539561;75;1142;-58
2020/12/10 10:48:00;;;;;;;;;;;20.10;30.60;;;;;;1542600;75;723;-58
2020/12/10 10:50:04;;;;;;;;;;;20.10;30.60;;;;;;1542695;75;1127;-60
2020/12/10 10:52:06;;;;;;;;;;;20.00;30.50;;;;;;1537249;75;737;-58
2020/12/10 10:54:08;;;;;;;;;;;20.00;30.50;;;;;;1542777;75;702;-59
2020/12/10 10:56:10;;;;;;;;;;;20.00;30.50;;;;;;1554819;75;1926;-59
2020/12/10 10:58:11;;;;;;;;;;;20.00;30.50;;;;;;1546551;75;706;-60
2020/12/10 11:00:13;;;;;;;;;;;20.00;30.60;;;;;;1536758;75;1168;-59
2020/12/10 11:02:15;;;;;;;;;;;20.00;30.50;;;;;;1542794;75;766;-59
2020/12/10 11:04:17;;;;;;;;;;;20.00;30.50;;;;;;1542880;75;753;-60
2020/12/10 11:06:19;;;;;;;;;;;19.90;30.50;;;;;;1542602;75;1032;-58
2020/12/10 11:08:21;;;;;;;;;;;20.00;30.60;;;;;;1533371;75;792;-58
2020/12/10 11:10:23;;;;;;;;;;;19.90;30.50;;;;;;1542733;75;1103;-58
2020/12/10 11:12:26;;;;;;;;;;;19.90;30.50;;;;;;1546291;75;752;-58
2020/12/10 11:14:28;;;;;;;;;;;19.90;30.60;;;;;;1542632;75;675;-59
2020/12/10 11:16:30;;;;;;;;;;;19.90;30.60;;;;;;1539702;75;1931;-59
2020/12/10 11:18:31;;;;;;;;;;;19.90;30.60;;;;;;1535482;75;876;-59
2020/12/10 11:20:33;;;;;;;;;;;19.90;30.60;;;;;;1542125;75;1186;-59
2020/12/10 11:22:38;;;;;;;;;;;19.90;30.60;;;;;;1542862;75;747;-58
2020/12/10 11:24:39;;;;;;;;;;;19.80;30.60;;;;;;1534028;75;1610;-59
2020/12/10 11:26:41;;;;;;;;;;;19.80;30.60;;;;;;1538663;75;1188;-60
2020/12/10 11:28:43;;;;;;;;;;;19.80;30.60;;;;;;1542717;75;762;-59
2020/12/10 11:30:45;;;;;;;;;;;19.80;30.70;;;;;;1533024;75;1187;-58
2020/12/10 11:32:47;;;;;;;;;;;19.80;30.50;;;;;;1541841;75;669;-59
2020/12/10 11:34:49;;;;;;;;;;;19.80;30.60;;;;;;1540538;75;689;-58
2020/12/10 11:36:51;;;;;;;;;;;19.80;30.50;;;;;;1556389;75;1935;-58
2020/12/10 11:38:53;;;;;;;;;;;19.80;30.50;;;;;;1534299;75;720;-59
2020/12/10 11:40:55;;;;;;;;;;;19.80;30.60;;;;;;1557340;75;1163;-59
2020/12/10 11:42:57;;;;;;;;;;;19.80;30.60;;;;;;1553677;75;717;-61
2020/12/10 11:45:00;;;;;;;;;;;19.70;30.60;;;;;;1555349;75;673;-60
2020/12/10 11:47:02;;;;;;;;;;;19.70;30.60;;;;;;1543318;75;1475;-58
2020/12/10 11:49:04;;;;;;;;;;;19.80;30.70;;;;;;1531764;75;733;-58
2020/12/10 11:51:06;;;;;;;;;;;19.70;30.70;;;;;;1542322;75;1185;-58
2020/12/10 11:53:08;;;;;;;;;;;19.70;30.70;;;;;;1542575;75;708;-58
2020/12/10 11:55:10;;;;;;;;;;;19.70;30.70;;;;;;1542704;75;738;-60
2020/12/10 11:57:12;;;;;;;;;;;19.70;30.70;;;;;;1536150;75;1905;-58
2020/12/10 11:59:14;;;;;;;;;;;19.70;30.70;;;;;;1562609;75;718;-58
2020/12/10 12:01:16;;;;;;;;;;;19.70;30.70;;;;;;1540793;75;1179;-58
2020/12/10 12:03:17;;;;;;;;;;;19.60;30.50;;;;;;1542764;75;708;-59
2020/12/10 12:05:24;;;;;;;;;;;19.60;30.60;;;;;;1535910;75;685;-58
2020/12/10 12:07:25;;;;;;;;;;;19.60;30.60;;;;;;1542490;75;1214;-58
2020/12/10 12:09:27;;;;;;;;;;;19.60;30.60;;;;;;1542592;75;755;-58
2020/12/10 12:11:29;;;;;;;;;;;19.60;30.70;;;;;;1542504;75;1155;-58
2020/12/10 12:13:31;;;;;;;;;;;19.60;30.70;;;;;;1529544;75;672;-58
2020/12/10 12:15:33;;;;;;;;;;;19.60;30.70;;;;;;1555889;75;1925;-58
2020/12/10 12:17:35;;;;;;;;;;;19.60;30.70;;;;;;1542513;75;684;-60
2020/12/10 12:19:37;;;;;;;;;;;19.60;30.60;;;;;;1542688;75;1230;-58
2020/12/10 12:21:38;;;;;;;;;;;19.60;30.70;;;;;;1562343;75;778;-58
2020/12/10 12:23:40;;;;;;;;;;;19.50;30.70;;;;;;1547699;75;765;-60
2020/12/10 12:25:42;;;;;;;;;;;19.60;30.60;;;;;;1526126;75;798;-60
2020/12/10 12:27:44;;;;;;;;;;;19.50;30.70;;;;;;1542234;75;1171;-59
2020/12/10 12:29:46;;;;;;;;;;;19.50;30.70;;;;;;1556850;75;1145;-58
2020/12/10 12:31:48;;;;;;;;;;;19.50;30.70;;;;;;1553004;75;680;-58
2020/12/10 12:33:50;;;;;;;;;;;19.50;30.70;;;;;;1536390;75;773;-58
2020/12/10 12:35:51;;;;;;;;;;;19.50;30.60;;;;;;1545553;75;1941;-58
2020/12/10 12:37:53;;;;;;;;;;;19.50;30.60;;;;;;1561072;75;723;-59
2020/12/10 12:39:55;;;;;;;;;;;19.50;30.60;;;;;;1539727;75;1188;-59
2020/12/10 12:41:57;;;;;;;;;;;19.50;30.70;;;;;;1545452;75;730;-59
2020/12/10 12:43:59;;;;;;;;;;;19.50;30.70;;;;;;1548844;75;676;-58